sensor_id;sensor_type;location;lat;lon;timestamp;P1;durP1;ratioP1;P2;durP2;ratioP2
18042;SDS011;9146;48.074;11.968;2022-07-09T00:01:19;3.60;;;2.83;;
18042;SDS011;9146;48.074;11.968;2022-07-09T00:03:46;2.90;;;2.70;;
18042;SDS011;9146;48.074;11.968;2022-07-09T00:06:13;2.77;;;2.57;;
18042;SDS011;9146;48.074;11.968;2022-07-09T00:08:40;11.40;;;3.17;;
18042;SDS011;9146;48.074;11.968;2022-07-09T00:11:06;2.83;;;2.60;;
18042;SDS011;9146;48.074;11.968;2022-07-09T00:13:33;3.00;;;2.80;;
18042;SDS011;9146;48.074;11.968;2022-07-09T00:16:02;6.37;;;3.00;;
18042;SDS011;9146;48.074;11.968;2022-07-09T00:18:29;4.70;;;2.70;;
18042;SDS011;9146;48.074;11.968;2022-07-09T00:20:56;4.53;;;3.20;;
18042;SDS011;9146;48.074;11.968;2022-07-09T00:23:23;3.37;;;3.07;;
18042;SDS011;9146;48.074;11.968;2022-07-09T00:25:50;3.47;;;3.10;;
18042;SDS011;9146;48.074;11.968;2022-07-09T00:28:18;3.87;;;3.40;;
18042;SDS011;9146;48.074;11.968;2022-07-09T00:30:45;4.63;;;3.20;;
18042;SDS011;9146;48.074;11.968;2022-07-09T00:33:13;6.17;;;4.07;;
18042;SDS011;9146;48.074;11.968;2022-07-09T00:35:40;4.30;;;3.90;;
18042;SDS011;9146;48.074;11.968;2022-07-09T00:38:07;4.93;;;3.20;;
18042;SDS011;9146;48.074;11.968;2022-07-09T00:40:34;3.47;;;3.17;;
18042;SDS011;9146;48.074;11.968;2022-07-09T00:43:01;4.03;;;3.30;;
18042;SDS011;9146;48.074;11.968;2022-07-09T00:45:28;3.17;;;2.97;;
18042;SDS011;9146;48.074;11.968;2022-07-09T00:47:55;4.23;;;3.83;;
18042;SDS011;9146;48.074;11.968;2022-07-09T00:50:24;8.10;;;3.70;;
18042;SDS011;9146;48.074;11.968;2022-07-09T00:52:51;6.93;;;4.30;;
18042;SDS011;9146;48.074;11.968;2022-07-09T00:55:18;3.57;;;3.27;;
18042;SDS011;9146;48.074;11.968;2022-07-09T00:57:45;3.70;;;3.27;;
18042;SDS011;9146;48.074;11.968;2022-07-09T01:00:12;7.27;;;3.87;;
18042;SDS011;9146;48.074;11.968;2022-07-09T01:02:40;3.87;;;3.57;;
18042;SDS011;9146;48.074;11.968;2022-07-09T01:05:08;4.60;;;4.20;;
18042;SDS011;9146;48.074;11.968;2022-07-09T01:07:36;5.10;;;4.00;;
18042;SDS011;9146;48.074;11.968;2022-07-09T01:10:03;8.37;;;3.70;;
18042;SDS011;9146;48.074;11.968;2022-07-09T01:12:31;4.80;;;3.43;;
18042;SDS011;9146;48.074;11.968;2022-07-09T01:14:58;4.77;;;3.80;;
18042;SDS011;9146;48.074;11.968;2022-07-09T01:17:25;5.07;;;3.87;;
18042;SDS011;9146;48.074;11.968;2022-07-09T01:19:52;4.30;;;3.37;;
18042;SDS011;9146;48.074;11.968;2022-07-09T01:22:21;4.10;;;3.80;;
18042;SDS011;9146;48.074;11.968;2022-07-09T01:24:48;3.17;;;2.97;;
18042;SDS011;9146;48.074;11.968;2022-07-09T01:27:18;3.80;;;3.40;;
18042;SDS011;9146;48.074;11.968;2022-07-09T01:29:45;3.30;;;3.00;;
18042;SDS011;9146;48.074;11.968;2022-07-09T01:32:14;3.97;;;3.37;;
18042;SDS011;9146;48.074;11.968;2022-07-09T01:34:42;5.80;;;3.27;;
18042;SDS011;9146;48.074;11.968;2022-07-09T01:37:09;7.00;;;3.30;;
18042;SDS011;9146;48.074;11.968;2022-07-09T01:39:37;5.67;;;3.03;;
18042;SDS011;9146;48.074;11.968;2022-07-09T01:42:15;4.60;;;3.30;;
18042;SDS011;9146;48.074;11.968;2022-07-09T01:44:42;4.80;;;2.93;;
18042;SDS011;9146;48.074;11.968;2022-07-09T01:47:09;4.93;;;3.27;;
18042;SDS011;9146;48.074;11.968;2022-07-09T01:49:36;6.83;;;3.43;;
18042;SDS011;9146;48.074;11.968;2022-07-09T01:52:04;4.27;;;3.77;;
18042;SDS011;9146;48.074;11.968;2022-07-09T01:54:31;4.13;;;3.40;;
18042;SDS011;9146;48.074;11.968;2022-07-09T01:56:59;3.57;;;2.97;;
18042;SDS011;9146;48.074;11.968;2022-07-09T01:59:26;3.50;;;3.10;;
18042;SDS011;9146;48.074;11.968;2022-07-09T02:01:53;3.13;;;2.83;;
18042;SDS011;9146;48.074;11.968;2022-07-09T02:04:20;3.10;;;2.90;;
18042;SDS011;9146;48.074;11.968;2022-07-09T02:06:47;5.90;;;2.93;;
18042;SDS011;9146;48.074;11.968;2022-07-09T02:09:14;6.07;;;4.57;;
18042;SDS011;9146;48.074;11.968;2022-07-09T02:11:41;3.10;;;2.80;;
18042;SDS011;9146;48.074;11.968;2022-07-09T02:14:10;3.10;;;2.87;;
18042;SDS011;9146;48.074;11.968;2022-07-09T02:16:36;5.20;;;3.33;;
18042;SDS011;9146;48.074;11.968;2022-07-09T02:19:03;3.63;;;3.33;;
18042;SDS011;9146;48.074;11.968;2022-07-09T02:21:31;7.13;;;5.03;;
18042;SDS011;9146;48.074;11.968;2022-07-09T02:23:58;5.73;;;4.80;;
18042;SDS011;9146;48.074;11.968;2022-07-09T02:26:25;3.50;;;3.30;;
18042;SDS011;9146;48.074;11.968;2022-07-09T02:28:52;3.73;;;3.43;;
18042;SDS011;9146;48.074;11.968;2022-07-09T02:31:21;6.23;;;3.80;;
18042;SDS011;9146;48.074;11.968;2022-07-09T02:33:48;4.07;;;3.20;;
18042;SDS011;9146;48.074;11.968;2022-07-09T02:36:15;5.17;;;3.20;;
18042;SDS011;9146;48.074;11.968;2022-07-09T02:38:42;4.17;;;3.50;;
18042;SDS011;9146;48.074;11.968;2022-07-09T02:41:09;3.23;;;3.03;;
18042;SDS011;9146;48.074;11.968;2022-07-09T02:43:36;3.13;;;2.93;;
18042;SDS011;9146;48.074;11.968;2022-07-09T02:46:03;4.70;;;3.47;;
18042;SDS011;9146;48.074;11.968;2022-07-09T02:48:31;4.90;;;3.70;;
18042;SDS011;9146;48.074;11.968;2022-07-09T02:50:58;3.23;;;3.03;;
18042;SDS011;9146;48.074;11.968;2022-07-09T02:53:26;7.87;;;3.60;;
18042;SDS011;9146;48.074;11.968;2022-07-09T02:55:53;3.13;;;2.93;;
18042;SDS011;9146;48.074;11.968;2022-07-09T02:58:20;5.37;;;3.80;;
18042;SDS011;9146;48.074;11.968;2022-07-09T03:00:47;3.87;;;3.10;;
18042;SDS011;9146;48.074;11.968;2022-07-09T03:03:14;9.30;;;3.53;;
18042;SDS011;9146;48.074;11.968;2022-07-09T03:05:43;4.00;;;3.70;;
18042;SDS011;9146;48.074;11.968;2022-07-09T03:08:10;4.73;;;3.27;;
18042;SDS011;9146;48.074;11.968;2022-07-09T03:10:37;2.93;;;2.73;;
18042;SDS011;9146;48.074;11.968;2022-07-09T03:13:04;2.73;;;2.47;;
18042;SDS011;9146;48.074;11.968;2022-07-09T03:15:30;3.40;;;3.10;;
18042;SDS011;9146;48.074;11.968;2022-07-09T03:17:57;3.67;;;3.23;;
18042;SDS011;9146;48.074;11.968;2022-07-09T03:20:24;3.90;;;2.87;;
18042;SDS011;9146;48.074;11.968;2022-07-09T03:22:53;6.20;;;3.10;;
18042;SDS011;9146;48.074;11.968;2022-07-09T03:25:20;3.27;;;2.97;;
18042;SDS011;9146;48.074;11.968;2022-07-09T03:27:48;3.50;;;2.70;;
18042;SDS011;9146;48.074;11.968;2022-07-09T03:30:15;4.50;;;3.87;;
18042;SDS011;9146;48.074;11.968;2022-07-09T03:32:41;7.53;;;3.30;;
18042;SDS011;9146;48.074;11.968;2022-07-09T03:35:08;3.20;;;2.90;;
18042;SDS011;9146;48.074;11.968;2022-07-09T03:37:35;4.67;;;3.10;;
18042;SDS011;9146;48.074;11.968;2022-07-09T03:40:04;3.53;;;3.23;;
18042;SDS011;9146;48.074;11.968;2022-07-09T03:42:32;3.50;;;3.20;;
18042;SDS011;9146;48.074;11.968;2022-07-09T03:44:59;4.00;;;3.13;;
18042;SDS011;9146;48.074;11.968;2022-07-09T03:47:26;2.73;;;2.53;;
18042;SDS011;9146;48.074;11.968;2022-07-09T03:49:53;5.03;;;3.30;;
18042;SDS011;9146;48.074;11.968;2022-07-09T03:52:20;4.93;;;4.43;;
18042;SDS011;9146;48.074;11.968;2022-07-09T03:54:47;8.03;;;7.10;;
18042;SDS011;9146;48.074;11.968;2022-07-09T03:57:15;10.10;;;7.90;;
18042;SDS011;9146;48.074;11.968;2022-07-09T03:59:42;8.47;;;7.20;;
18042;SDS011;9146;48.074;11.968;2022-07-09T04:02:09;9.30;;;5.73;;
18042;SDS011;9146;48.074;11.968;2022-07-09T04:04:36;5.63;;;4.43;;
18042;SDS011;9146;48.074;11.968;2022-07-09T04:07:03;3.53;;;3.33;;
18042;SDS011;9146;48.074;11.968;2022-07-09T04:09:30;4.67;;;3.27;;
18042;SDS011;9146;48.074;11.968;2022-07-09T04:11:57;2.97;;;2.70;;
18042;SDS011;9146;48.074;11.968;2022-07-09T04:14:26;3.83;;;2.73;;
18042;SDS011;9146;48.074;11.968;2022-07-09T04:16:52;4.17;;;2.90;;
18042;SDS011;9146;48.074;11.968;2022-07-09T04:19:20;3.70;;;3.40;;
18042;SDS011;9146;48.074;11.968;2022-07-09T04:21:46;4.10;;;3.60;;
18042;SDS011;9146;48.074;11.968;2022-07-09T04:24:13;3.37;;;3.07;;
18042;SDS011;9146;48.074;11.968;2022-07-09T04:26:41;6.10;;;2.73;;
18042;SDS011;9146;48.074;11.968;2022-07-09T04:29:07;5.70;;;3.30;;
18042;SDS011;9146;48.074;11.968;2022-07-09T04:31:37;2.50;;;2.30;;
18042;SDS011;9146;48.074;11.968;2022-07-09T04:34:03;5.00;;;2.90;;
18042;SDS011;9146;48.074;11.968;2022-07-09T04:36:31;5.10;;;2.90;;
18042;SDS011;9146;48.074;11.968;2022-07-09T04:38:58;3.13;;;2.63;;
18042;SDS011;9146;48.074;11.968;2022-07-09T04:41:24;5.20;;;2.73;;
18042;SDS011;9146;48.074;11.968;2022-07-09T04:43:53;4.17;;;2.97;;
18042;SDS011;9146;48.074;11.968;2022-07-09T04:46:20;2.97;;;2.77;;
18042;SDS011;9146;48.074;11.968;2022-07-09T04:48:49;5.13;;;2.73;;
18042;SDS011;9146;48.074;11.968;2022-07-09T04:51:15;4.60;;;2.57;;
18042;SDS011;9146;48.074;11.968;2022-07-09T04:53:42;3.00;;;2.77;;
18042;SDS011;9146;48.074;11.968;2022-07-09T04:56:09;2.60;;;2.20;;
18042;SDS011;9146;48.074;11.968;2022-07-09T04:58:36;3.80;;;2.57;;
18042;SDS011;9146;48.074;11.968;2022-07-09T05:01:03;3.17;;;2.40;;
18042;SDS011;9146;48.074;11.968;2022-07-09T05:03:31;4.63;;;2.30;;
18042;SDS011;9146;48.074;11.968;2022-07-09T05:05:59;5.80;;;2.43;;
18042;SDS011;9146;48.074;11.968;2022-07-09T05:08:26;3.80;;;2.50;;
18042;SDS011;9146;48.074;11.968;2022-07-09T05:10:53;2.40;;;2.30;;
18042;SDS011;9146;48.074;11.968;2022-07-09T05:13:20;3.30;;;2.70;;
18042;SDS011;9146;48.074;11.968;2022-07-09T05:15:46;6.10;;;2.30;;
18042;SDS011;9146;48.074;11.968;2022-07-09T05:18:13;2.30;;;2.10;;
18042;SDS011;9146;48.074;11.968;2022-07-09T05:20:40;2.73;;;2.53;;
18042;SDS011;9146;48.074;11.968;2022-07-09T05:23:08;2.70;;;2.50;;
18042;SDS011;9146;48.074;11.968;2022-07-09T05:25:36;3.10;;;2.10;;
18042;SDS011;9146;48.074;11.968;2022-07-09T05:28:03;3.20;;;2.97;;
18042;SDS011;9146;48.074;11.968;2022-07-09T05:30:30;3.90;;;2.40;;
18042;SDS011;9146;48.074;11.968;2022-07-09T05:33:02;6.20;;;2.20;;
18042;SDS011;9146;48.074;11.968;2022-07-09T05:35:30;2.67;;;2.33;;
18042;SDS011;9146;48.074;11.968;2022-07-09T05:37:57;2.10;;;2.00;;
18042;SDS011;9146;48.074;11.968;2022-07-09T05:40:25;2.70;;;2.50;;
18042;SDS011;9146;48.074;11.968;2022-07-09T05:42:52;3.07;;;2.70;;
18042;SDS011;9146;48.074;11.968;2022-07-09T05:45:19;3.00;;;2.80;;
18042;SDS011;9146;48.074;11.968;2022-07-09T05:47:46;4.10;;;2.57;;
18042;SDS011;9146;48.074;11.968;2022-07-09T05:50:13;2.20;;;2.10;;
18042;SDS011;9146;48.074;11.968;2022-07-09T05:52:40;3.30;;;2.10;;
18042;SDS011;9146;48.074;11.968;2022-07-09T05:55:07;1.90;;;1.80;;
18042;SDS011;9146;48.074;11.968;2022-07-09T05:57:36;2.83;;;2.63;;
18042;SDS011;9146;48.074;11.968;2022-07-09T06:00:03;5.60;;;4.20;;
18042;SDS011;9146;48.074;11.968;2022-07-09T06:02:32;10.37;;;5.37;;
18042;SDS011;9146;48.074;11.968;2022-07-09T06:04:59;9.47;;;6.70;;
18042;SDS011;9146;48.074;11.968;2022-07-09T06:07:26;10.03;;;6.50;;
18042;SDS011;9146;48.074;11.968;2022-07-09T06:09:53;10.60;;;5.83;;
18042;SDS011;9146;48.074;11.968;2022-07-09T06:12:19;8.87;;;5.07;;
18042;SDS011;9146;48.074;11.968;2022-07-09T06:14:48;10.20;;;4.30;;
18042;SDS011;9146;48.074;11.968;2022-07-09T06:17:15;5.80;;;3.90;;
18042;SDS011;9146;48.074;11.968;2022-07-09T06:19:42;5.83;;;3.30;;
18042;SDS011;9146;48.074;11.968;2022-07-09T06:22:09;4.37;;;3.40;;
18042;SDS011;9146;48.074;11.968;2022-07-09T06:24:36;6.03;;;4.43;;
18042;SDS011;9146;48.074;11.968;2022-07-09T06:27:03;6.13;;;3.80;;
18042;SDS011;9146;48.074;11.968;2022-07-09T06:29:31;5.00;;;3.40;;
18042;SDS011;9146;48.074;11.968;2022-07-09T06:31:59;4.03;;;3.30;;
18042;SDS011;9146;48.074;11.968;2022-07-09T06:34:26;6.17;;;4.17;;
18042;SDS011;9146;48.074;11.968;2022-07-09T06:36:53;6.10;;;4.23;;
18042;SDS011;9146;48.074;11.968;2022-07-09T06:39:20;4.17;;;3.80;;
18042;SDS011;9146;48.074;11.968;2022-07-09T06:42:04;7.00;;;3.37;;
18042;SDS011;9146;48.074;11.968;2022-07-09T06:44:32;6.97;;;3.00;;
18042;SDS011;9146;48.074;11.968;2022-07-09T06:47:01;4.80;;;2.33;;
18042;SDS011;9146;48.074;11.968;2022-07-09T06:49:28;4.17;;;2.00;;
18042;SDS011;9146;48.074;11.968;2022-07-09T06:51:55;6.73;;;2.20;;
18042;SDS011;9146;48.074;11.968;2022-07-09T06:54:22;2.50;;;2.10;;
18042;SDS011;9146;48.074;11.968;2022-07-09T06:56:49;2.73;;;2.00;;
18042;SDS011;9146;48.074;11.968;2022-07-09T06:59:16;2.73;;;2.13;;
18042;SDS011;9146;48.074;11.968;2022-07-09T07:01:43;3.13;;;1.73;;
18042;SDS011;9146;48.074;11.968;2022-07-09T07:04:12;3.33;;;2.00;;
18042;SDS011;9146;48.074;11.968;2022-07-09T07:06:40;1.90;;;1.70;;
18042;SDS011;9146;48.074;11.968;2022-07-09T07:09:07;2.63;;;2.10;;
18042;SDS011;9146;48.074;11.968;2022-07-09T07:11:34;2.17;;;1.97;;
18042;SDS011;9146;48.074;11.968;2022-07-09T07:14:01;3.97;;;2.07;;
18042;SDS011;9146;48.074;11.968;2022-07-09T07:16:28;2.73;;;1.93;;
18042;SDS011;9146;48.074;11.968;2022-07-09T07:18:55;2.60;;;1.60;;
18042;SDS011;9146;48.074;11.968;2022-07-09T07:21:23;1.67;;;1.50;;
18042;SDS011;9146;48.074;11.968;2022-07-09T07:23:50;4.47;;;1.97;;
18042;SDS011;9146;48.074;11.968;2022-07-09T07:26:17;2.60;;;1.90;;
18042;SDS011;9146;48.074;11.968;2022-07-09T07:28:44;3.37;;;2.00;;
18042;SDS011;9146;48.074;11.968;2022-07-09T07:31:11;4.90;;;2.40;;
18042;SDS011;9146;48.074;11.968;2022-07-09T07:33:38;2.13;;;1.70;;
18042;SDS011;9146;48.074;11.968;2022-07-09T07:36:05;3.80;;;2.20;;
18042;SDS011;9146;48.074;11.968;2022-07-09T07:38:34;1.90;;;1.80;;
18042;SDS011;9146;48.074;11.968;2022-07-09T07:41:01;2.30;;;2.07;;
18042;SDS011;9146;48.074;11.968;2022-07-09T07:43:28;2.40;;;1.90;;
18042;SDS011;9146;48.074;11.968;2022-07-09T07:45:56;2.00;;;1.90;;
18042;SDS011;9146;48.074;11.968;2022-07-09T07:48:23;3.47;;;2.60;;
18042;SDS011;9146;48.074;11.968;2022-07-09T07:50:52;2.23;;;1.90;;
18042;SDS011;9146;48.074;11.968;2022-07-09T07:53:19;1.73;;;1.63;;
18042;SDS011;9146;48.074;11.968;2022-07-09T07:55:48;4.03;;;1.90;;
18042;SDS011;9146;48.074;11.968;2022-07-09T07:58:15;1.57;;;1.43;;
18042;SDS011;9146;48.074;11.968;2022-07-09T08:00:42;3.10;;;2.47;;
18042;SDS011;9146;48.074;11.968;2022-07-09T08:03:10;2.43;;;1.70;;
18042;SDS011;9146;48.074;11.968;2022-07-09T08:05:37;2.10;;;1.83;;
18042;SDS011;9146;48.074;11.968;2022-07-09T08:08:04;1.73;;;1.63;;
18042;SDS011;9146;48.074;11.968;2022-07-09T08:10:31;4.97;;;1.97;;
18042;SDS011;9146;48.074;11.968;2022-07-09T08:12:59;2.80;;;2.30;;
18042;SDS011;9146;48.074;11.968;2022-07-09T08:15:26;2.13;;;1.93;;
18042;SDS011;9146;48.074;11.968;2022-07-09T08:17:53;3.40;;;1.77;;
18042;SDS011;9146;48.074;11.968;2022-07-09T08:20:19;4.10;;;1.50;;
18042;SDS011;9146;48.074;11.968;2022-07-09T08:22:46;2.30;;;1.70;;
18042;SDS011;9146;48.074;11.968;2022-07-09T08:25:13;3.17;;;2.10;;
18042;SDS011;9146;48.074;11.968;2022-07-09T08:27:40;4.60;;;1.97;;
18042;SDS011;9146;48.074;11.968;2022-07-09T08:30:09;2.77;;;2.20;;
18042;SDS011;9146;48.074;11.968;2022-07-09T08:32:37;3.23;;;2.10;;
18042;SDS011;9146;48.074;11.968;2022-07-09T08:35:05;3.60;;;2.17;;
18042;SDS011;9146;48.074;11.968;2022-07-09T08:37:33;3.53;;;1.97;;
18042;SDS011;9146;48.074;11.968;2022-07-09T08:40:00;3.83;;;1.60;;
18042;SDS011;9146;48.074;11.968;2022-07-09T08:42:27;2.23;;;2.03;;
18042;SDS011;9146;48.074;11.968;2022-07-09T08:44:54;2.30;;;1.90;;
18042;SDS011;9146;48.074;11.968;2022-07-09T08:47:22;2.83;;;2.40;;
18042;SDS011;9146;48.074;11.968;2022-07-09T08:49:51;1.97;;;1.83;;
18042;SDS011;9146;48.074;11.968;2022-07-09T08:52:23;3.53;;;2.30;;
18042;SDS011;9146;48.074;11.968;2022-07-09T08:54:52;2.20;;;1.87;;
18042;SDS011;9146;48.074;11.968;2022-07-09T08:57:19;3.93;;;1.60;;
18042;SDS011;9146;48.074;11.968;2022-07-09T08:59:46;1.70;;;1.60;;
18042;SDS011;9146;48.074;11.968;2022-07-09T09:02:13;4.70;;;2.20;;
18042;SDS011;9146;48.074;11.968;2022-07-09T09:04:46;2.40;;;1.83;;
18042;SDS011;9146;48.074;11.968;2022-07-09T09:07:14;3.00;;;2.10;;
18042;SDS011;9146;48.074;11.968;2022-07-09T09:09:42;2.20;;;1.87;;
18042;SDS011;9146;48.074;11.968;2022-07-09T09:12:09;2.43;;;1.70;;
18042;SDS011;9146;48.074;11.968;2022-07-09T09:14:37;2.13;;;1.80;;
18042;SDS011;9146;48.074;11.968;2022-07-09T09:17:05;3.30;;;2.20;;
18042;SDS011;9146;48.074;11.968;2022-07-09T09:19:34;4.40;;;1.77;;
18042;SDS011;9146;48.074;11.968;2022-07-09T09:22:04;1.40;;;1.30;;
18042;SDS011;9146;48.074;11.968;2022-07-09T09:24:31;1.43;;;1.30;;
18042;SDS011;9146;48.074;11.968;2022-07-09T09:26:59;2.10;;;1.50;;
18042;SDS011;9146;48.074;11.968;2022-07-09T09:29:27;3.33;;;1.90;;
18042;SDS011;9146;48.074;11.968;2022-07-09T09:31:54;1.83;;;1.73;;
18042;SDS011;9146;48.074;11.968;2022-07-09T09:34:22;2.60;;;1.60;;
18042;SDS011;9146;48.074;11.968;2022-07-09T09:36:49;2.40;;;1.53;;
18042;SDS011;9146;48.074;11.968;2022-07-09T09:39:19;2.20;;;1.60;;
18042;SDS011;9146;48.074;11.968;2022-07-09T09:41:48;2.67;;;1.63;;
18042;SDS011;9146;48.074;11.968;2022-07-09T09:44:17;4.63;;;1.90;;
18042;SDS011;9146;48.074;11.968;2022-07-09T09:46:45;3.63;;;2.47;;
18042;SDS011;9146;48.074;11.968;2022-07-09T09:49:13;1.57;;;1.43;;
18042;SDS011;9146;48.074;11.968;2022-07-09T09:51:47;3.67;;;1.93;;
18042;SDS011;9146;48.074;11.968;2022-07-09T09:54:17;2.57;;;1.60;;
18042;SDS011;9146;48.074;11.968;2022-07-09T09:56:46;2.40;;;1.47;;
18042;SDS011;9146;48.074;11.968;2022-07-09T09:59:14;1.93;;;1.60;;
18042;SDS011;9146;48.074;11.968;2022-07-09T10:01:42;3.30;;;1.67;;
18042;SDS011;9146;48.074;11.968;2022-07-09T10:04:10;2.00;;;1.80;;
18042;SDS011;9146;48.074;11.968;2022-07-09T10:06:38;2.30;;;1.90;;
18042;SDS011;9146;48.074;11.968;2022-07-09T10:09:06;2.70;;;1.60;;
18042;SDS011;9146;48.074;11.968;2022-07-09T10:11:39;2.40;;;1.50;;
18042;SDS011;9146;48.074;11.968;2022-07-09T10:14:07;1.60;;;1.50;;
18042;SDS011;9146;48.074;11.968;2022-07-09T10:16:40;2.23;;;1.83;;
18042;SDS011;9146;48.074;11.968;2022-07-09T10:19:07;4.80;;;1.50;;
18042;SDS011;9146;48.074;11.968;2022-07-09T10:21:35;1.53;;;1.17;;
18042;SDS011;9146;48.074;11.968;2022-07-09T10:24:03;2.53;;;1.70;;
18042;SDS011;9146;48.074;11.968;2022-07-09T10:26:35;2.60;;;1.70;;
18042;SDS011;9146;48.074;11.968;2022-07-09T10:29:05;3.13;;;1.80;;
18042;SDS011;9146;48.074;11.968;2022-07-09T10:31:45;3.00;;;1.57;;
18042;SDS011;9146;48.074;11.968;2022-07-09T10:34:21;2.90;;;1.40;;
18042;SDS011;9146;48.074;11.968;2022-07-09T10:36:57;3.10;;;1.50;;
18042;SDS011;9146;48.074;11.968;2022-07-09T10:39:24;1.60;;;1.50;;
18042;SDS011;9146;48.074;11.968;2022-07-09T10:41:58;1.80;;;1.70;;
18042;SDS011;9146;48.074;11.968;2022-07-09T10:44:27;5.40;;;1.50;;
18042;SDS011;9146;48.074;11.968;2022-07-09T10:46:57;1.13;;;1.13;;
18042;SDS011;9146;48.074;11.968;2022-07-09T10:49:24;1.60;;;1.50;;
18042;SDS011;9146;48.074;11.968;2022-07-09T10:51:54;1.93;;;1.40;;
18042;SDS011;9146;48.074;11.968;2022-07-09T10:54:22;1.50;;;1.40;;
18042;SDS011;9146;48.074;11.968;2022-07-09T10:56:49;2.60;;;1.70;;
18042;SDS011;9146;48.074;11.968;2022-07-09T10:59:17;2.50;;;1.53;;
18042;SDS011;9146;48.074;11.968;2022-07-09T11:01:46;2.70;;;1.80;;
18042;SDS011;9146;48.074;11.968;2022-07-09T11:04:23;1.50;;;1.40;;
18042;SDS011;9146;48.074;11.968;2022-07-09T11:06:51;3.50;;;1.47;;
18042;SDS011;9146;48.074;11.968;2022-07-09T11:09:18;2.37;;;1.67;;
18042;SDS011;9146;48.074;11.968;2022-07-09T11:11:45;1.60;;;1.50;;
18042;SDS011;9146;48.074;11.968;2022-07-09T11:14:13;2.57;;;1.70;;
18042;SDS011;9146;48.074;11.968;2022-07-09T11:16:40;1.80;;;1.40;;
18042;SDS011;9146;48.074;11.968;2022-07-09T11:19:15;3.90;;;1.90;;
18042;SDS011;9146;48.074;11.968;2022-07-09T11:21:44;2.50;;;1.60;;
18042;SDS011;9146;48.074;11.968;2022-07-09T11:24:14;3.60;;;1.63;;
18042;SDS011;9146;48.074;11.968;2022-07-09T11:26:42;2.20;;;1.57;;
18042;SDS011;9146;48.074;11.968;2022-07-09T11:29:09;4.73;;;1.90;;
18042;SDS011;9146;48.074;11.968;2022-07-09T11:31:36;1.70;;;1.60;;
18042;SDS011;9146;48.074;11.968;2022-07-09T11:34:11;2.47;;;1.63;;
18042;SDS011;9146;48.074;11.968;2022-07-09T11:36:40;5.83;;;1.83;;
18042;SDS011;9146;48.074;11.968;2022-07-09T11:39:09;2.10;;;1.37;;
18042;SDS011;9146;48.074;11.968;2022-07-09T11:41:39;1.50;;;1.30;;
18042;SDS011;9146;48.074;11.968;2022-07-09T11:44:07;4.67;;;1.60;;
18042;SDS011;9146;48.074;11.968;2022-07-09T11:46:34;1.93;;;1.70;;
18042;SDS011;9146;48.074;11.968;2022-07-09T11:49:02;2.40;;;1.20;;
18042;SDS011;9146;48.074;11.968;2022-07-09T11:51:41;1.57;;;1.43;;
18042;SDS011;9146;48.074;11.968;2022-07-09T11:54:08;2.37;;;1.70;;
18042;SDS011;9146;48.074;11.968;2022-07-09T11:56:41;2.27;;;1.90;;
18042;SDS011;9146;48.074;11.968;2022-07-09T11:59:10;4.20;;;1.97;;
18042;SDS011;9146;48.074;11.968;2022-07-09T12:01:37;1.60;;;1.43;;
18042;SDS011;9146;48.074;11.968;2022-07-09T12:04:04;3.40;;;1.93;;
18042;SDS011;9146;48.074;11.968;2022-07-09T12:06:31;2.10;;;1.40;;
18042;SDS011;9146;48.074;11.968;2022-07-09T12:09:00;3.40;;;1.80;;
18042;SDS011;9146;48.074;11.968;2022-07-09T12:11:29;4.53;;;1.70;;
18042;SDS011;9146;48.074;11.968;2022-07-09T12:13:56;2.07;;;1.53;;
18042;SDS011;9146;48.074;11.968;2022-07-09T12:16:24;2.13;;;1.50;;
18042;SDS011;9146;48.074;11.968;2022-07-09T12:18:51;5.47;;;1.80;;
18042;SDS011;9146;48.074;11.968;2022-07-09T12:21:18;4.13;;;1.80;;
18042;SDS011;9146;48.074;11.968;2022-07-09T12:23:46;2.03;;;1.57;;
18042;SDS011;9146;48.074;11.968;2022-07-09T12:26:14;1.63;;;1.40;;
18042;SDS011;9146;48.074;11.968;2022-07-09T12:28:41;1.90;;;1.60;;
18042;SDS011;9146;48.074;11.968;2022-07-09T12:31:08;1.53;;;1.40;;
18042;SDS011;9146;48.074;11.968;2022-07-09T12:33:35;2.53;;;1.60;;
18042;SDS011;9146;48.074;11.968;2022-07-09T12:36:02;2.63;;;1.53;;
18042;SDS011;9146;48.074;11.968;2022-07-09T12:38:30;2.27;;;1.60;;
18042;SDS011;9146;48.074;11.968;2022-07-09T12:40:57;1.70;;;1.60;;
18042;SDS011;9146;48.074;11.968;2022-07-09T12:43:25;1.97;;;1.30;;
18042;SDS011;9146;48.074;11.968;2022-07-09T12:45:52;3.23;;;1.50;;
18042;SDS011;9146;48.074;11.968;2022-07-09T12:48:20;6.70;;;2.20;;
18042;SDS011;9146;48.074;11.968;2022-07-09T12:50:46;2.33;;;2.03;;
18042;SDS011;9146;48.074;11.968;2022-07-09T12:53:13;3.50;;;1.77;;
18042;SDS011;9146;48.074;11.968;2022-07-09T12:55:40;1.53;;;1.43;;
18042;SDS011;9146;48.074;11.968;2022-07-09T12:58:07;1.73;;;1.63;;
18042;SDS011;9146;48.074;11.968;2022-07-09T13:00:36;4.63;;;1.87;;
18042;SDS011;9146;48.074;11.968;2022-07-09T13:03:03;2.43;;;1.57;;
18042;SDS011;9146;48.074;11.968;2022-07-09T13:05:31;2.57;;;1.30;;
18042;SDS011;9146;48.074;11.968;2022-07-09T13:07:58;1.87;;;1.53;;
18042;SDS011;9146;48.074;11.968;2022-07-09T13:10:24;4.50;;;1.97;;
18042;SDS011;9146;48.074;11.968;2022-07-09T13:12:51;2.00;;;1.73;;
18042;SDS011;9146;48.074;11.968;2022-07-09T13:15:18;1.63;;;1.50;;
18042;SDS011;9146;48.074;11.968;2022-07-09T13:17:47;1.73;;;1.30;;
18042;SDS011;9146;48.074;11.968;2022-07-09T13:20:14;3.37;;;1.53;;
18042;SDS011;9146;48.074;11.968;2022-07-09T13:22:42;1.50;;;1.40;;
18042;SDS011;9146;48.074;11.968;2022-07-09T13:25:09;4.07;;;2.10;;
18042;SDS011;9146;48.074;11.968;2022-07-09T13:27:36;5.70;;;2.10;;
18042;SDS011;9146;48.074;11.968;2022-07-09T13:30:03;2.03;;;1.70;;
18042;SDS011;9146;48.074;11.968;2022-07-09T13:32:31;2.13;;;1.30;;
18042;SDS011;9146;48.074;11.968;2022-07-09T13:35:00;2.30;;;1.93;;
18042;SDS011;9146;48.074;11.968;2022-07-09T13:37:27;1.57;;;1.47;;
18042;SDS011;9146;48.074;11.968;2022-07-09T13:39:56;3.17;;;1.80;;
18042;SDS011;9146;48.074;11.968;2022-07-09T13:42:23;2.17;;;1.57;;
18042;SDS011;9146;48.074;11.968;2022-07-09T13:44:49;2.60;;;1.47;;
18042;SDS011;9146;48.074;11.968;2022-07-09T13:47:16;1.87;;;1.60;;
18042;SDS011;9146;48.074;11.968;2022-07-09T13:49:44;5.00;;;1.87;;
18042;SDS011;9146;48.074;11.968;2022-07-09T13:52:12;4.00;;;1.60;;
18042;SDS011;9146;48.074;11.968;2022-07-09T13:54:39;1.83;;;1.60;;
18042;SDS011;9146;48.074;11.968;2022-07-09T13:57:06;2.70;;;1.80;;
18042;SDS011;9146;48.074;11.968;2022-07-09T13:59:33;3.30;;;1.50;;
18042;SDS011;9146;48.074;11.968;2022-07-09T14:02:00;1.57;;;1.37;;
18042;SDS011;9146;48.074;11.968;2022-07-09T14:04:26;1.53;;;1.43;;
18042;SDS011;9146;48.074;11.968;2022-07-09T14:06:55;3.50;;;1.83;;
18042;SDS011;9146;48.074;11.968;2022-07-09T14:09:23;1.73;;;1.60;;
18042;SDS011;9146;48.074;11.968;2022-07-09T14:11:50;1.43;;;1.33;;
18042;SDS011;9146;48.074;11.968;2022-07-09T14:14:17;2.13;;;1.37;;
18042;SDS011;9146;48.074;11.968;2022-07-09T14:16:44;2.40;;;1.53;;
18042;SDS011;9146;48.074;11.968;2022-07-09T14:19:11;2.07;;;1.80;;
18042;SDS011;9146;48.074;11.968;2022-07-09T14:21:38;2.20;;;1.70;;
18042;SDS011;9146;48.074;11.968;2022-07-09T14:24:05;2.93;;;1.70;;
18042;SDS011;9146;48.074;11.968;2022-07-09T14:26:34;2.13;;;1.73;;
18042;SDS011;9146;48.074;11.968;2022-07-09T14:29:01;1.77;;;1.43;;
18042;SDS011;9146;48.074;11.968;2022-07-09T14:31:28;2.90;;;1.80;;
18042;SDS011;9146;48.074;11.968;2022-07-09T14:33:55;4.13;;;1.87;;
18042;SDS011;9146;48.074;11.968;2022-07-09T14:36:22;1.60;;;1.37;;
18042;SDS011;9146;48.074;11.968;2022-07-09T14:38:49;3.27;;;1.70;;
18042;SDS011;9146;48.074;11.968;2022-07-09T14:41:16;3.43;;;1.53;;
18042;SDS011;9146;48.074;11.968;2022-07-09T14:43:44;1.60;;;1.40;;
18042;SDS011;9146;48.074;11.968;2022-07-09T14:46:11;2.57;;;1.73;;
18042;SDS011;9146;48.074;11.968;2022-07-09T14:48:38;1.90;;;1.70;;
18042;SDS011;9146;48.074;11.968;2022-07-09T14:51:06;3.23;;;1.60;;